Time;durP1;ratioP1;P1;durP2;ratioP2;P2;SDS_P1;SDS_P2;PMS_P1;PMS_P2;Temp;Humidity;BMP_temperature;BMP_pressure;BME280_temperature;BME280_humidity;BME280_pressure;Samples;Min_cycle;Max_cycle;Signal;HPM_P1;HPM_P2
2021/11/13 00:01:36;;;;;;;36.80;17.47;;;;;;;3.34;75.41;100428.34;1791716;77;21499;-56
2021/11/13 00:04:04;;;;;;;47.47;21.90;;;;;;;3.36;75.48;100429.22;1783188;77;20962;-56
2021/11/13 00:06:30;;;;;;;47.10;19.50;;;;;;;3.38;75.55;100436.30;1788113;77;20984;-56
2021/11/13 00:08:58;;;;;;;44.27;20.83;;;;;;;3.40;75.52;100433.16;1794901;77;21530;-56
2021/11/13 00:11:25;;;;;;;42.73;19.47;;;;;;;3.41;75.55;100435.38;1786067;77;21137;-57
2021/11/13 00:13:54;;;;;;;45.83;19.73;;;;;;;3.40;75.71;100437.14;1782587;77;21583;-57
2021/11/13 00:16:20;;;;;;;46.53;19.27;;;;;;;3.40;75.78;100432.30;1772053;77;20884;-57
2021/11/13 00:18:47;;;;;;;54.20;18.83;;;;;;;3.36;75.72;100435.42;1792166;77;20895;-57
2021/11/13 00:21:14;;;;;;;39.20;15.83;;;;;;;3.33;75.83;100434.55;1786708;77;21104;-56
2021/11/13 00:23:41;;;;;;;35.33;15.43;;;;;;;3.33;75.92;100439.88;1783199;77;21147;-57
2021/11/13 00:26:07;;;;;;;34.80;15.17;;;;;;;3.33;76.03;100435.44;1784050;77;21116;-57
2021/11/13 00:28:34;;;;;;;31.73;15.10;;;;;;;3.33;76.12;100435.44;1786756;77;21053;-57
2021/11/13 00:31:00;;;;;;;29.77;15.20;;;;;;;3.34;76.00;100429.67;1787059;77;21029;-57
2021/11/13 00:33:27;;;;;;;27.23;15.60;;;;;;;3.36;76.08;100434.54;1782712;77;21073;-56
2021/11/13 00:35:55;;;;;;;24.53;15.37;;;;;;;3.38;76.01;100424.77;1789850;77;21483;-56
2021/11/13 00:38:21;;;;;;;28.20;16.30;;;;;;;3.36;75.93;100434.09;1789556;77;21033;-56
2021/11/13 00:40:48;;;;;;;33.57;17.47;;;;;;;3.35;75.62;100436.77;1786840;77;21081;-56
2021/11/13 00:43:14;;;;;;;26.17;15.83;;;;;;;3.29;75.46;100442.14;1784567;77;21103;-57
2021/11/13 00:45:42;;;;;;;34.20;18.30;;;;;;;3.22;75.47;100435.99;1798913;77;21042;-56
2021/11/13 00:48:09;;;;;;;26.30;17.17;;;;;;;3.18;75.37;100440.89;1732440;81;22274;-56
2021/11/13 00:50:35;;;;;;;29.23;17.43;;;;;;;3.12;75.24;100444.93;1727725;80;21510;-56
2021/11/13 00:53:02;;;;;;;32.17;18.10;;;;;;;3.09;75.19;100447.59;1733764;80;21014;-56
2021/11/13 00:55:28;;;;;;;25.47;15.07;;;;;;;3.07;75.12;100448.49;1735543;80;20984;-56
2021/11/13 00:57:57;;;;;;;21.83;12.93;;;;;;;3.04;75.07;100448.98;1731709;80;21207;-57
2021/11/13 01:00:22;;;;;;;21.67;13.47;;;;;;;3.06;75.11;100450.75;1732712;80;21137;-56
2021/11/13 01:02:49;;;;;;;20.33;12.73;;;;;;;3.07;75.12;100455.14;1731906;80;21116;-56
2021/11/13 01:05:16;;;;;;;20.13;12.37;;;;;;;3.08;75.10;100459.12;1730616;80;21171;-56
2021/11/13 01:07:44;;;;;;;25.50;14.50;;;;;;;3.10;75.27;100451.14;1729329;80;21163;-56
2021/11/13 01:10:15;;;;;;;25.67;14.57;;;;;;;3.13;75.30;100450.69;1729005;80;21367;-56
2021/11/13 01:12:43;;;;;;;24.00;14.90;;;;;;;3.16;75.33;100452.42;1735187;80;21383;-56
2021/11/13 01:15:10;;;;;;;24.60;16.93;;;;;;;3.17;75.31;100453.75;1738436;80;20914;-56
2021/11/13 01:17:39;;;;;;;26.73;17.43;;;;;;;3.17;75.41;100445.77;1736074;80;20894;-56
2021/11/13 01:20:07;;;;;;;27.60;17.47;;;;;;;3.16;75.39;100446.66;1739338;80;20937;-56
2021/11/13 01:22:38;;;;;;;30.73;17.93;;;;;;;3.13;75.33;100441.38;1734339;80;20966;-56
2021/11/13 01:25:05;;;;;;;25.33;15.10;;;;;;;3.09;75.32;100435.62;1735881;80;21768;-56
2021/11/13 01:27:33;;;;;;;23.40;16.03;;;;;;;3.03;75.11;100439.23;1732958;80;20937;-56
2021/11/13 01:30:00;;;;;;;24.67;15.03;;;;;;;2.96;74.89;100440.17;1731339;80;20916;-56
2021/11/13 01:32:28;;;;;;;28.60;15.53;;;;;;;2.89;74.74;100449.53;1737961;80;20966;-56
2021/11/13 01:34:54;;;;;;;22.13;13.90;;;;;;;2.82;74.80;100440.67;1731377;80;20962;-56
2021/11/13 01:37:21;;;;;;;25.93;14.67;;;;;;;2.79;75.06;100437.17;1732380;80;21930;-56
2021/11/13 01:39:47;;;;;;;24.07;15.07;;;;;;;2.78;75.33;100437.62;1737591;80;20908;-56
2021/11/13 01:42:15;;;;;;;30.70;15.47;;;;;;;2.78;75.50;100438.95;1730381;80;20950;-56
2021/11/13 01:44:42;;;;;;;20.30;12.80;;;;;;;2.80;75.69;100444.27;1731367;80;20907;-56
2021/11/13 01:47:08;;;;;;;23.00;15.07;;;;;;;2.79;75.69;100432.74;1735479;80;20878;-56
2021/11/13 01:49:36;;;;;;;26.00;15.53;;;;;;;2.77;75.60;100430.53;1751489;79;21122;-56
2021/11/13 01:52:10;;;;;;;21.00;13.50;;;;;;;2.75;75.48;100434.97;1749636;79;21111;-56
2021/11/13 01:54:40;;;;;;;24.77;16.43;;;;;;;2.71;75.33;100433.23;1723757;80;21052;-56
2021/11/13 01:57:11;;;;;;;29.50;16.73;;;;;;;2.66;75.17;100443.87;1726960;80;21041;-57
2021/11/13 01:59:40;;;;;;;29.87;17.43;;;;;;;2.63;75.16;100444.36;1757915;79;21487;-57
2021/11/13 02:02:07;;;;;;;25.93;16.30;;;;;;;2.59;75.19;100447.46;1732366;80;22079;-57
2021/11/13 02:04:34;;;;;;;25.77;15.33;;;;;;;2.57;75.16;100454.99;1733707;80;21412;-56
2021/11/13 02:07:04;;;;;;;22.90;13.73;;;;;;;2.53;75.13;100446.61;1741192;79;21495;-57
2021/11/13 02:09:30;;;;;;;24.40;13.90;;;;;;;2.51;75.06;100449.72;1735050;81;21056;-57
2021/11/13 02:11:58;;;;;;;24.33;13.60;;;;;;;2.49;75.17;100456.36;1727459;81;21068;-56
2021/11/13 02:14:27;;;;;;;22.70;14.67;;;;;;;2.46;75.10;100453.73;1730012;80;21332;-56
2021/11/13 02:16:55;;;;;;;25.37;15.40;;;;;;;2.41;75.22;100451.97;1733059;80;20973;-56
2021/11/13 02:19:21;;;;;;;24.20;14.73;;;;;;;2.39;75.31;100460.38;1729917;80;20995;-56
2021/11/13 02:21:48;;;;;;;24.70;14.83;;;;;;;2.37;75.49;100457.77;1723872;80;21084;-57
2021/11/13 02:24:15;;;;;;;25.33;15.93;;;;;;;2.38;75.44;100465.29;1722652;80;21116;-56
2021/11/13 02:26:43;;;;;;;27.50;16.60;;;;;;;2.34;75.41;100464.41;1729256;80;21143;-56
2021/11/13 02:29:09;;;;;;;23.93;15.50;;;;;;;2.33;75.52;100465.29;1726751;80;21188;-57
2021/11/13 02:31:42;;;;;;;26.10;15.67;;;;;;;2.31;75.58;100471.48;1727024;80;21057;-57
2021/11/13 02:34:10;;;;;;;24.13;14.77;;;;;;;2.30;75.56;100469.27;1728620;80;20907;-57
2021/11/13 02:36:37;;;;;;;22.40;13.10;;;;;;;2.31;75.62;100467.50;1727738;80;20986;-56
2021/11/13 02:39:07;;;;;;;20.80;12.63;;;;;;;2.30;75.58;100461.78;1726344;80;21169;-56
2021/11/13 02:41:34;;;;;;;21.50;12.27;;;;;;;2.30;75.58;100465.29;1723332;80;21046;-56
2021/11/13 02:44:01;;;;;;;23.30;14.93;;;;;;;2.28;75.51;100465.32;1731855;80;20952;-56
2021/11/13 02:46:28;;;;;;;25.10;14.53;;;;;;;2.30;75.38;100469.75;1731059;80;21024;-56
2021/11/13 02:48:55;;;;;;;23.90;14.63;;;;;;;2.29;75.28;100470.19;1725963;80;21035;-57
2021/11/13 02:51:21;;;;;;;25.57;15.27;;;;;;;2.26;75.21;100473.73;1726422;80;21892;-57
2021/11/13 02:53:52;;;;;;;27.03;15.67;;;;;;;2.24;75.35;100470.63;1734631;80;21025;-56
2021/11/13 02:56:19;;;;;;;23.73;16.57;;;;;;;2.21;75.32;100468.86;1726417;80;21163;-57
2021/11/13 02:58:46;;;;;;;27.57;16.57;;;;;;;2.17;75.16;100471.55;1722847;80;21097;-57
2021/11/13 03:01:17;;;;;;;21.63;14.70;;;;;;;2.10;75.26;100476.44;1728501;80;20946;-56
2021/11/13 03:03:49;;;;;;;20.40;12.97;;;;;;;2.04;75.37;100474.66;1729723;80;22403;-56
2021/11/13 03:06:17;;;;;;;21.05;13.05;;;;;;;2.01;75.34;100473.80;1738997;79;21111;-57
2021/11/13 03:08:49;;;;;;;21.67;13.07;;;;;;;1.96;75.27;100473.80;1743303;79;20987;-56
2021/11/13 03:11:15;;;;;;;20.70;13.80;;;;;;;1.92;75.17;100477.80;1745846;79;21111;-56
2021/11/13 03:13:44;;;;;;;22.00;13.90;;;;;;;1.89;75.18;100479.56;1751449;79;21075;-56
2021/11/13 03:16:12;;;;;;;21.43;13.97;;;;;;;1.86;75.29;100485.34;1748719;79;21365;-57
2021/11/13 03:18:38;;;;;;;25.40;14.90;;;;;;;1.85;75.28;100485.78;1742419;79;21384;-57
2021/11/13 03:21:06;;;;;;;26.80;17.27;;;;;;;1.86;75.28;100488.00;1746011;79;21508;-56
2021/11/13 03:23:39;;;;;;;29.50;18.10;;;;;;;1.86;75.30;100487.56;1748877;79;21185;-58
2021/11/13 03:26:08;;;;;;;26.47;16.03;;;;;;;1.86;75.44;100489.33;1740581;79;21052;-58
2021/11/13 03:28:39;;;;;;;27.17;17.93;;;;;;;1.85;75.55;100489.77;1741110;79;22784;-57
2021/11/13 03:31:06;;;;;;;27.97;16.77;;;;;;;1.82;75.66;100490.20;1745990;79;21085;-57
2021/11/13 03:33:35;;;;;;;27.17;14.83;;;;;;;1.81;75.88;100494.63;1746309;79;21214;-57
2021/11/13 03:36:03;;;;;;;25.93;14.53;;;;;;;1.80;75.91;100493.29;1741437;79;21101;-58
2021/11/13 03:38:30;;;;;;;20.40;13.07;;;;;;;1.79;76.01;100493.73;1739715;79;21057;-58
2021/11/13 03:40:56;;;;;;;25.50;14.10;;;;;;;1.79;76.30;100496.39;1747073;79;20998;-59
2021/11/13 03:43:22;;;;;;;23.43;14.97;;;;;;;1.82;76.76;100495.51;1746303;79;21095;-58
2021/11/13 03:45:51;;;;;;;24.03;14.03;;;;;;;1.88;77.06;100491.51;1740042;79;21108;-58
2021/11/13 03:48:18;;;;;;;23.43;14.10;;;;;;;1.94;77.19;100502.58;1745304;79;20989;-58
2021/11/13 03:50:45;;;;;;;26.20;15.07;;;;;;;1.99;77.24;100496.81;1739120;79;21064;-58
2021/11/13 03:53:12;;;;;;;22.07;15.47;;;;;;;2.02;77.13;100499.47;1740529;79;21129;-58
2021/11/13 03:55:40;;;;;;;25.07;16.03;;;;;;;2.02;77.00;100501.69;1740914;79;21111;-59
2021/11/13 03:58:08;;;;;;;24.03;14.73;;;;;;;2.02;77.03;100491.50;1744913;79;21083;-58
2021/11/13 04:00:35;;;;;;;26.87;15.50;;;;;;;2.02;77.08;100499.03;1741984;79;21478;-59
2021/11/13 04:03:02;;;;;;;20.63;13.17;;;;;;;2.05;77.19;100502.10;1742765;79;21226;-58
2021/11/13 04:05:30;;;;;;;21.43;12.87;;;;;;;2.08;77.14;100504.77;1742684;79;21057;-58
2021/11/13 04:07:56;;;;;;;26.47;14.60;;;;;;;2.06;77.15;100505.20;1744083;79;21032;-58
2021/11/13 04:10:23;;;;;;;21.60;13.73;;;;;;;2.09;77.13;100502.55;1748194;79;20886;-59
2021/11/13 04:12:50;;;;;;;20.57;13.77;;;;;;;2.08;77.09;100493.70;1745892;79;20985;-59
2021/11/13 04:15:18;;;;;;;24.27;14.60;;;;;;;2.10;77.11;100496.36;1745394;79;20914;-58
2021/11/13 04:17:48;;;;;;;24.50;14.40;;;;;;;2.12;77.08;100497.24;1746467;79;21036;-59
2021/11/13 04:20:17;;;;;;;20.63;13.93;;;;;;;2.11;77.00;100492.81;1750262;79;21388;-57
2021/11/13 04:22:47;;;;;;;21.80;14.80;;;;;;;2.09;76.83;100487.50;1742142;79;20945;-58
2021/11/13 04:25:13;;;;;;;24.90;16.03;;;;;;;2.05;76.79;100488.82;1756180;79;21033;-57
2021/11/13 04:27:40;;;;;;;26.07;16.03;;;;;;;2.01;76.79;100494.60;1748887;79;21459;-58
2021/11/13 04:30:08;;;;;;;28.40;15.73;;;;;;;1.97;76.77;100498.13;1748536;79;21090;-59
2021/11/13 04:32:38;;;;;;;28.63;17.03;;;;;;;1.94;76.70;100494.18;1745277;79;20965;-59
2021/11/13 04:35:17;;;;;;;29.07;16.80;;;;;;;1.92;76.63;100495.95;1748398;79;21329;-59
2021/11/13 04:37:47;;;;;;;29.00;17.33;;;;;;;1.90;76.58;100500.36;1747617;79;21008;-57
2021/11/13 04:40:14;;;;;;;28.67;17.67;;;;;;;1.88;76.48;100502.13;1733589;81;20941;-58
2021/11/13 04:42:41;;;;;;;32.93;18.83;;;;;;;1.85;76.27;100504.81;1748355;79;21110;-57
2021/11/13 04:45:07;;;;;;;28.57;18.07;;;;;;;1.82;76.29;100500.81;1750632;79;20962;-59
2021/11/13 04:47:35;;;;;;;29.67;19.30;;;;;;;1.77;76.21;100502.16;1743991;79;20925;-58
2021/11/13 04:50:03;;;;;;;26.20;16.43;;;;;;;1.75;76.23;100509.23;1743777;79;20981;-58
2021/11/13 04:52:30;;;;;;;27.23;15.83;;;;;;;1.71;76.05;100511.44;1744445;79;20929;-58
2021/11/13 04:54:56;;;;;;;28.60;17.57;;;;;;;1.67;75.98;100511.02;1741920;79;21816;-58
2021/11/13 04:57:22;;;;;;;26.07;16.83;;;;;;;1.64;75.88;100518.08;1743803;79;21346;-58
2021/11/13 04:59:48;;;;;;;25.07;15.73;;;;;;;1.60;75.81;100522.95;1738516;79;21473;-58
2021/11/13 05:02:15;;;;;;;22.40;14.83;;;;;;;1.57;75.72;100522.94;1744669;79;21551;-58
2021/11/13 05:04:41;;;;;;;24.53;14.10;;;;;;;1.55;75.61;100531.34;1747072;79;21740;-58
2021/11/13 05:07:08;;;;;;;25.53;15.20;;;;;;;1.50;75.41;100530.03;1738004;79;21470;-57
2021/11/13 05:09:34;;;;;;;27.80;17.33;;;;;;;1.48;75.32;100536.65;1745507;79;21026;-58
2021/11/13 05:12:02;;;;;;;24.00;15.83;;;;;;;1.46;75.20;100535.75;1745083;79;21681;-58
2021/11/13 05:14:28;;;;;;;26.57;17.80;;;;;;;1.44;75.12;100527.38;1740813;79;21044;-58
2021/11/13 05:16:55;;;;;;;27.10;16.47;;;;;;;1.44;75.08;100536.66;1741062;79;21098;-57
2021/11/13 05:19:22;;;;;;;25.30;17.30;;;;;;;1.43;75.06;100545.50;1742827;79;21495;-57
2021/11/13 05:21:48;;;;;;;27.63;16.67;;;;;;;1.43;75.05;100545.06;1741930;79;21598;-57
2021/11/13 05:24:15;;;;;;;30.17;16.97;;;;;;;1.39;74.90;100545.92;1739770;79;21501;-57
2021/11/13 05:26:41;;;;;;;26.23;17.30;;;;;;;1.36;74.97;100561.83;1743291;79;21224;-58
2021/11/13 05:29:08;;;;;;;29.53;15.97;;;;;;;1.32;75.09;100566.70;1716409;79;21586;-58
2021/11/13 05:31:34;;;;;;;24.63;14.93;;;;;;;1.30;75.13;100573.76;1746938;79;21457;-58
2021/11/13 05:34:01;;;;;;;25.70;15.30;;;;;;;1.31;75.13;100571.99;1750335;79;21048;-58
2021/11/13 05:36:27;;;;;;;24.57;15.40;;;;;;;1.33;75.11;100576.87;1746253;79;21091;-57
2021/11/13 05:38:53;;;;;;;27.67;16.87;;;;;;;1.35;75.06;100579.98;1748921;79;21083;-57
2021/11/13 05:41:20;;;;;;;27.63;16.47;;;;;;;1.37;75.04;100584.82;1744539;79;21079;-57
2021/11/13 05:43:47;;;;;;;27.13;16.83;;;;;;;1.37;75.07;100578.19;1749030;79;21123;-57
2021/11/13 05:46:15;;;;;;;31.43;17.07;;;;;;;1.40;75.06;100592.80;1742609;79;21044;-57
2021/11/13 05:48:43;;;;;;;25.60;15.43;;;;;;;1.40;75.01;100590.14;1745870;79;21147;-58
2021/11/13 05:51:09;;;;;;;25.27;16.63;;;;;;;1.41;74.83;100592.36;1747622;79;21115;-57
2021/11/13 05:53:36;;;;;;;31.50;18.83;;;;;;;1.38;74.70;100601.19;1745684;79;21127;-57
2021/11/13 05:56:03;;;;;;;29.43;18.43;;;;;;;1.34;74.62;100600.75;1756564;79;21610;-57
2021/11/13 05:58:29;;;;;;;27.80;16.33;;;;;;;1.30;74.87;100602.05;1757732;79;21470;-57
2021/11/13 06:00:56;;;;;;;31.07;18.00;;;;;;;1.29;75.05;100601.59;1749389;79;21565;-57
2021/11/13 06:03:22;;;;;;;36.23;17.57;;;;;;;1.30;75.08;100596.73;1755945;79;21079;-57
2021/11/13 06:05:49;;;;;;;34.20;17.97;;;;;;;1.31;74.96;100605.14;1745443;79;21155;-57
2021/11/13 06:08:15;;;;;;;30.40;17.07;;;;;;;1.34;75.03;100607.38;1747289;79;22327;-57
2021/11/13 06:10:41;;;;;;;27.63;16.20;;;;;;;1.38;75.01;100601.62;1740147;80;21168;-58
2021/11/13 06:13:11;;;;;;;27.73;15.03;;;;;;;1.41;75.04;100609.60;1745598;79;21112;-57
2021/11/13 06:15:38;;;;;;;34.97;17.83;;;;;;;1.48;75.07;100616.69;1738721;80;21057;-57
2021/11/13 06:18:06;;;;;;;32.63;19.30;;;;;;;1.51;75.07;100620.24;1744792;79;21549;-57
2021/11/13 06:20:32;;;;;;;30.67;18.43;;;;;;;1.53;74.94;100627.33;1718317;81;22027;-57
2021/11/13 06:22:59;;;;;;;30.43;18.50;;;;;;;1.53;75.16;100623.34;1741999;79;21418;-57
2021/11/13 06:25:25;;;;;;;30.97;19.80;;;;;;;1.58;75.31;100629.53;1747746;79;20960;-57
2021/11/13 06:27:51;;;;;;;38.77;21.53;;;;;;;1.62;75.43;100630.85;1752249;79;21566;-56
2021/11/13 06:30:18;;;;;;;38.47;20.07;;;;;;;1.67;75.51;100629.55;1757201;79;21067;-56
2021/11/13 06:32:46;;;;;;;34.27;19.43;;;;;;;1.72;75.49;100635.73;1743699;79;21136;-57
2021/11/13 06:35:13;;;;;;;39.00;20.10;;;;;;;1.74;75.47;100633.98;1740327;79;21375;-58
2021/11/13 06:37:41;;;;;;;49.60;22.03;;;;;;;1.78;75.48;100628.70;1743342;79;21049;-56
2021/11/13 06:40:08;;;;;;;49.53;21.80;;;;;;;1.84;75.60;100630.02;1746209;79;21308;-55
2021/11/13 06:42:36;;;;;;;40.97;21.53;;;;;;;1.90;75.74;100628.69;1740208;79;20996;-56
2021/11/13 06:45:05;;;;;;;39.10;19.33;;;;;;;1.97;75.80;100626.91;1750422;79;21685;-55
2021/11/13 06:47:33;;;;;;;28.37;16.87;;;;;;;2.03;75.91;100628.27;1743460;79;21158;-59
2021/11/13 06:50:01;;;;;;;33.57;17.97;;;;;;;2.10;76.02;100635.34;1737942;79;21095;-56
2021/11/13 06:52:27;;;;;;;41.57;18.17;;;;;;;2.19;76.13;100630.03;1747722;79;21123;-56
2021/11/13 06:54:54;;;;;;;40.70;20.57;;;;;;;2.29;76.23;100634.90;1746008;79;21747;-56
2021/11/13 06:57:21;;;;;;;35.67;19.43;;;;;;;2.39;76.38;100637.08;1742036;79;21102;-56
2021/11/13 06:59:48;;;;;;;38.40;22.23;;;;;;;2.49;76.53;100635.73;1741420;79;21016;-55
2021/11/13 07:02:15;;;;;;;43.47;25.83;;;;;;;2.60;76.85;100641.05;1741480;79;21494;-56
2021/11/13 07:04:43;;;;;;;43.90;25.83;;;;;;;2.71;77.22;100643.69;1751405;79;21052;-55
2021/11/13 07:07:10;;;;;;;40.17;24.67;;;;;;;2.81;77.59;100637.43;1736756;79;21355;-56
2021/11/13 07:09:37;;;;;;;41.03;23.47;;;;;;;2.91;77.98;100638.73;1729243;80;22515;-55
2021/11/13 07:12:05;;;;;;;34.77;20.83;;;;;;;3.00;78.28;100630.73;1727686;80;21116;-56
2021/11/13 07:14:31;;;;;;;33.73;20.60;;;;;;;3.13;78.52;100642.67;1736337;80;20941;-56
2021/11/13 07:16:58;;;;;;;35.10;19.13;;;;;;;3.23;78.71;100650.58;1732586;80;21024;-55
2021/11/13 07:19:25;;;;;;;34.17;19.27;;;;;;;3.35;79.01;100648.32;1733722;80;20934;-56
2021/11/13 07:21:51;;;;;;;36.27;19.43;;;;;;;3.48;79.23;100643.39;1735180;80;21108;-55
2021/11/13 07:24:18;;;;;;;33.87;18.27;;;;;;;3.63;79.39;100643.73;1734367;80;21001;-55
2021/11/13 07:26:51;;;;;;;35.33;21.10;;;;;;;3.75;79.50;100648.52;1719172;80;21041;-55
2021/11/13 07:29:16;;;;;;;35.87;20.40;;;;;;;3.89;79.61;100652.89;1738982;80;21336;-55
2021/11/13 07:31:41;;;;;;;32.13;21.07;;;;;;;4.00;79.68;100643.91;1734995;80;21081;-55
2021/11/13 07:34:08;;;;;;;35.07;19.03;;;;;;;4.13;79.68;100648.71;1731848;80;21075;-54
2021/11/13 07:36:34;;;;;;;34.83;20.77;;;;;;;4.24;79.62;100641.97;1723647;81;20972;-55
2021/11/13 07:39:00;;;;;;;34.77;18.93;;;;;;;4.32;79.64;100646.78;1735293;80;20962;-55
2021/11/13 07:41:27;;;;;;;33.57;17.10;;;;;;;4.40;79.59;100654.27;1730921;80;21002;-54
2021/11/13 07:43:56;;;;;;;35.10;17.17;;;;;;;4.45;79.59;100648.43;1733981;80;21398;-54
2021/11/13 07:46:22;;;;;;;29.33;18.17;;;;;;;4.49;79.54;100650.19;1735627;80;21535;-56
2021/11/13 07:48:48;;;;;;;47.20;25.43;;;;;;;4.53;79.56;100649.23;1732047;80;21506;-55
2021/11/13 07:51:16;;;;;;;30.47;18.03;;;;;;;4.60;79.58;100649.61;1735420;80;21343;-55
2021/11/13 07:53:43;;;;;;;38.90;19.37;;;;;;;4.70;79.62;100657.07;1735930;80;20898;-57
2021/11/13 07:56:09;;;;;;;30.27;17.80;;;;;;;4.79;79.50;100651.64;1730583;80;21010;-56
2021/11/13 07:58:36;;;;;;;38.27;20.23;;;;;;;4.87;79.41;100646.66;1732339;80;21350;-56
2021/11/13 08:01:02;;;;;;;31.13;18.03;;;;;;;4.96;79.33;100644.34;1729935;80;21699;-55
2021/11/13 08:03:28;;;;;;;24.97;15.77;;;;;;;5.04;79.14;100646.47;1729057;80;21076;-56
2021/11/13 08:05:55;;;;;;;27.37;14.50;;;;;;;5.12;79.02;100638.38;1734146;80;21089;-55
2021/11/13 08:08:21;;;;;;;30.20;16.40;;;;;;;5.18;78.90;100645.88;1738283;79;21080;-55
2021/11/13 08:10:49;;;;;;;23.57;13.77;;;;;;;5.24;78.77;100644.45;1706889;81;21086;-56
2021/11/13 08:13:18;;;;;;;29.20;15.90;;;;;;;5.30;78.59;100635.48;1737224;79;21076;-56
2021/11/13 08:15:47;;;;;;;31.13;14.57;;;;;;;5.37;78.39;100641.61;1744662;79;20898;-55
2021/11/13 08:18:14;;;;;;;24.23;14.87;;;;;;;5.43;78.28;100649.56;1741960;79;21012;-55
2021/11/13 08:20:40;;;;;;;31.57;15.33;;;;;;;5.50;78.21;100640.56;1743137;79;21091;-57
2021/11/13 08:23:09;;;;;;;31.70;18.63;;;;;;;5.56;78.07;100644.03;1740511;79;21453;-55
2021/11/13 08:25:38;;;;;;;28.10;17.30;;;;;;;5.63;77.98;100643.03;1739991;79;21305;-55
2021/11/13 08:28:06;;;;;;;25.13;16.60;;;;;;;5.70;77.71;100649.16;1735995;79;21541;-54
2021/11/13 08:30:33;;;;;;;25.43;16.50;;;;;;;5.74;77.63;100655.36;1742692;79;21593;-55
2021/11/13 08:33:00;;;;;;;30.63;17.20;;;;;;;5.79;77.51;100650.82;1742752;79;20961;-55
2021/11/13 08:35:27;;;;;;;31.10;16.90;;;;;;;5.83;77.38;100649.44;1744658;79;21068;-55
2021/11/13 08:37:53;;;;;;;27.13;17.03;;;;;;;5.92;77.25;100654.67;1743173;79;21072;-55
2021/11/13 08:40:19;;;;;;;27.57;16.10;;;;;;;6.00;77.10;100651.88;1743816;79;21050;-54
2021/11/13 08:42:46;;;;;;;24.97;15.13;;;;;;;6.10;77.11;100656.64;1745316;79;21045;-55
2021/11/13 08:45:12;;;;;;;23.20;15.37;;;;;;;6.22;76.95;100644.39;1740574;79;21807;-55
2021/11/13 08:47:40;;;;;;;28.93;16.40;;;;;;;6.32;76.75;100648.23;1742412;79;21522;-55
2021/11/13 08:50:10;;;;;;;29.37;17.27;;;;;;;6.42;76.47;100655.20;1739304;79;21085;-56
2021/11/13 08:52:37;;;;;;;26.80;16.90;;;;;;;6.49;76.16;100643.94;1728999;81;21965;-55
2021/11/13 08:55:06;;;;;;;24.20;16.13;;;;;;;6.57;75.94;100643.34;1742681;79;21464;-55
2021/11/13 08:57:32;;;;;;;31.20;18.87;;;;;;;6.67;75.68;100638.26;1748284;80;21065;-55
2021/11/13 09:00:00;;;;;;;32.47;19.50;;;;;;;6.77;75.43;100633.17;1746686;79;21590;-56
2021/11/13 09:02:26;;;;;;;26.03;16.67;;;;;;;6.89;74.98;100625.34;1755539;79;21539;-55
2021/11/13 09:04:53;;;;;;;24.23;16.07;;;;;;;7.02;74.48;100634.03;1760624;79;22512;-55
2021/11/13 09:07:20;;;;;;;32.93;21.80;;;;;;;7.12;74.13;100625.80;1756633;79;21060;-55
2021/11/13 09:09:47;;;;;;;18.63;11.63;;;;;;;7.26;73.65;100633.98;1738192;80;21072;-56
2021/11/13 09:12:25;;;;;;;23.93;13.47;;;;;;;7.36;73.16;100630.20;1731716;80;21119;-55
2021/11/13 09:14:57;;;;;;;18.00;12.17;;;;;;;7.46;72.39;100625.97;1735742;80;21076;-55
2021/11/13 09:17:24;;;;;;;21.40;14.80;;;;;;;7.55;71.82;100626.22;1736034;80;21106;-56
2021/11/13 09:19:52;;;;;;;22.47;13.07;;;;;;;7.62;71.07;100623.83;1740216;80;21038;-56
2021/11/13 09:22:19;;;;;;;22.70;14.17;;;;;;;7.69;70.26;100625.45;1734340;80;21081;-55
2021/11/13 09:24:46;;;;;;;19.23;13.83;;;;;;;7.73;69.77;100624.47;1733747;80;22287;-55
2021/11/13 09:27:13;;;;;;;22.27;13.60;;;;;;;7.77;69.41;100622.12;1736646;80;21638;-56
2021/11/13 09:29:39;;;;;;;23.33;13.20;;;;;;;7.83;69.17;100625.11;1732615;80;21538;-55
2021/11/13 09:32:06;;;;;;;16.60;12.70;;;;;;;7.88;68.83;100613.84;1732270;80;21144;-55
2021/11/13 09:34:32;;;;;;;18.20;11.37;;;;;;;7.93;68.42;100621.31;1733178;80;21062;-55
2021/11/13 09:36:59;;;;;;;16.20;10.40;;;;;;;7.98;68.03;100614.94;1735583;80;21116;-55
2021/11/13 09:39:26;;;;;;;15.90;11.48;;;;;;;8.02;67.69;100621.55;1735693;80;21165;-56
2021/11/13 09:41:52;;;;;;;20.30;12.13;;;;;;;8.05;67.53;100614.78;1731335;80;21386;-55
2021/11/13 09:44:20;;;;;;;17.77;10.33;;;;;;;8.10;67.39;100608.84;1736268;80;21052;-55
2021/11/13 09:46:47;;;;;;;16.87;10.47;;;;;;;8.14;67.08;100608.73;1731143;80;21057;-55
2021/11/13 09:49:15;;;;;;;25.45;14.65;;;;;;;8.17;66.76;100601.05;1736513;80;21104;-55
2021/11/13 09:51:43;;;;;;;25.68;15.28;;;;;;;8.17;66.38;100603.28;1710095;81;21848;-55
2021/11/13 09:54:09;;;;;;;25.52;15.78;;;;;;;8.18;66.38;100603.70;1732252;80;20982;-56
2021/11/13 09:56:36;;;;;;;27.82;17.77;;;;;;;8.21;66.43;100613.02;1736150;80;21505;-55
2021/11/13 09:59:04;;;;;;;28.30;18.50;;;;;;;8.20;66.35;100605.02;1732745;80;21080;-55
2021/11/13 10:01:31;;;;;;;31.20;19.12;;;;;;;8.10;66.26;100599.45;1751942;79;22389;-56
2021/11/13 10:04:01;;;;;;;30.50;18.87;;;;;;;7.99;66.53;100602.42;1731643;80;21103;-56
2021/11/13 10:06:27;;;;;;;28.83;17.83;;;;;;;7.96;66.75;100602.48;1729367;80;22472;-55
2021/11/13 10:08:53;;;;;;;27.67;18.25;;;;;;;7.96;66.74;100603.36;1727306;80;20902;-56
2021/11/13 10:11:24;;;;;;;26.00;17.17;;;;;;;7.96;66.72;100603.82;1727441;80;20902;-56
2021/11/13 10:13:56;;;;;;;29.47;16.80;;;;;;;7.97;66.70;100604.25;1725605;80;21400;-56
2021/11/13 10:16:32;;;;;;;28.80;18.17;;;;;;;7.98;66.60;100615.40;1726650;80;20977;-55
2021/11/13 10:19:10;;;;;;;29.10;17.87;;;;;;;7.97;66.55;100609.61;1727747;80;21467;-55
2021/11/13 10:21:37;;;;;;;29.25;18.73;;;;;;;7.97;66.55;100617.19;1727199;80;20867;-55
2021/11/13 10:24:16;;;;;;;23.27;15.95;;;;;;;7.98;66.53;100610.92;1725590;80;21536;-56
2021/11/13 10:26:45;;;;;;;28.15;17.35;;;;;;;7.99;66.58;100611.80;1709938;80;21106;-56
2021/11/13 10:29:22;;;;;;;29.40;19.00;;;;;;;7.98;66.61;100618.96;1727441;80;20922;-56
2021/11/13 10:31:53;;;;;;;24.50;15.85;;;;;;;7.97;66.45;100608.27;1726605;80;21683;-56
2021/11/13 10:34:25;;;;;;;26.65;16.80;;;;;;;7.94;66.39;100605.65;1727809;80;21364;-55
2021/11/13 10:36:58;;;;;;;23.40;14.60;;;;;;;7.90;66.23;100609.34;1726549;80;21758;-56
2021/11/13 10:39:34;;;;;;;20.13;14.80;;;;;;;7.90;66.26;100608.00;1729844;80;21041;-55
2021/11/13 10:42:06;;;;;;;23.47;15.43;;;;;;;7.89;66.26;100598.19;1733825;80;20934;-55
2021/11/13 10:44:49;;;;;;;21.57;14.53;;;;;;;7.90;66.09;100601.30;1732677;80;22127;-56
2021/11/13 10:47:25;;;;;;;17.55;12.07;;;;;;;7.92;65.97;100597.64;1728801;80;20970;-56
2021/11/13 10:49:52;;;;;;;17.90;10.80;;;;;;;7.98;65.86;100602.87;1721981;80;21088;-56
2021/11/13 10:52:20;;;;;;;15.13;10.23;;;;;;;8.05;65.87;100600.92;1723110;80;21135;-56
2021/11/13 10:54:49;;;;;;;16.12;10.25;;;;;;;8.10;65.85;100597.66;1727501;80;20930;-55
2021/11/13 10:57:28;;;;;;;16.77;12.28;;;;;;;8.17;65.59;100598.38;1727818;80;20937;-55
2021/11/13 10:59:55;;;;;;;21.80;14.70;;;;;;;8.22;65.06;100600.50;1727158;80;20938;-55
2021/11/13 11:02:22;;;;;;;22.80;14.15;;;;;;;8.24;64.76;100602.23;1725137;80;20974;-55
2021/11/13 11:04:48;;;;;;;17.82;13.62;;;;;;;8.27;64.70;100604.81;1722672;80;21412;-55
2021/11/13 11:07:27;;;;;;;19.73;12.73;;;;;;;8.30;64.65;100602.52;1724040;80;21483;-56
2021/11/13 11:10:03;;;;;;;20.33;13.87;;;;;;;8.33;64.47;100597.13;1720356;80;21087;-55
2021/11/13 11:12:33;;;;;;;19.37;13.70;;;;;;;8.35;64.32;100602.85;1725589;80;21446;-56
2021/11/13 11:14:59;;;;;;;22.03;12.87;;;;;;;8.34;64.05;100600.20;1722093;80;21162;-55
2021/11/13 11:17:28;;;;;;;19.52;13.10;;;;;;;8.29;63.98;100602.98;1724331;80;22862;-55
2021/11/13 11:22:38;;;;;;;18.00;11.67;;;;;;;8.35;64.05;100596.14;1830531;76;22541;-57